• Join FlightAware (Why Join?)
  • Login
  • US Flag 
12:31AM EDT


 

Airport Tracker/Info


-or-


 

Live Flight TrackerFlight Track Log ✈ UAL335 ✈ 26-Apr-2013 ✈ KTPA - KEWR

Flight Track Log - Related Links

Times and Time Zones

All times are in EDT time to prevent confusion due to time zone crossing. See the UAL335 flight status page for this flight to view local times or setup timezone preferences in your user account.

Time Position Orientation Groundspeed Altitude Reporting Facility
EDT Latitude Longitude Course Direction KTS MPH feet Rate Location/Type
04:36PM 28.0000 -82.5333 North 154 177 800  Level Tampa TRACON
04:37PM 28.0333 -82.5333 360° North 176 203 1,700 1,980 Climbing Tampa TRACON
04:39PM 28.3077 -82.5667 North  Level FlightAware Approximate
04:39PM 28.1347 -82.5394 357° North 245 282 5,600  Level Jacksonville Center
04:40PM 28.4232 -82.5706 355° North  Level FlightAware Approximate
04:40PM 28.2100 -82.5464 355° North 257 296 8,800  Level Jacksonville Center
04:41PM 28.5384 -82.5822 355° North  Level FlightAware Approximate
04:41PM 28.2914 -82.5556 354° North 277 319 11,500  Level Jacksonville Center
04:42PM 28.6540 -82.5833 North  Level FlightAware Approximate
04:42PM 28.3792 -82.5622 356° North 297 342 13,200  Level Jacksonville Center
04:43PM 28.4708 -82.5928 344° North 322 371 15,700 2,100 Climbing Jacksonville Center
04:44PM 28.5650 -82.6278 342° North 341 392 17,500 1,620 Climbing Jacksonville Center
04:45PM 28.6653 -82.6608 344° North 353 406 19,000 1,680 Climbing Jacksonville Center
04:46PM 28.7592 -82.6722 354° North 365 420 20,900 1,800 Climbing Jacksonville Center
04:47PM 28.8697 -82.6744 359° North 375 432 22,600 1,560 Climbing Jacksonville Center
04:48PM 28.9825 -82.6789 358° North 395 455 24,100 1,560 Climbing Jacksonville Center
04:49PM 29.0994 -82.6786 360° North 407 468 25,800 1,500 Climbing Jacksonville Center
04:50PM 29.2119 -82.6783 360° North 407 468 27,200 1,200 Climbing Jacksonville Center
04:51PM 29.3311 -82.6806 359° North 407 468 28,200 1,080 Climbing Jacksonville Center
04:52PM 29.4522 -82.6828 359° North 419 482 29,400 1,260 Climbing Jacksonville Center
04:53PM 29.5858 -82.6847 359° North 437 503 30,800 1,380 Climbing Jacksonville Center
04:54PM 29.7047 -82.6894 358° North 432 497 32,200 1,200 Climbing Jacksonville Center
04:55PM 29.8258 -82.6892 360° North 426 490 33,200 960 Climbing Jacksonville Center
04:56PM 29.9428 -82.6911 359° North 421 484 34,200 840 Climbing Jacksonville Center
04:57PM 30.0514 -82.6886 North 421 484 34,900 600 Climbing Jacksonville Center
04:58PM 30.1808 -82.6883 360° North 421 484 35,500 840 Climbing Jacksonville Center
04:59PM 30.2872 -82.6856 North 421 484 36,600 720 Climbing Jacksonville Center
05:00PM 30.4042 -82.6856 360° North 421 484 37,000 120 Climbing Jacksonville Center
05:01PM 30.5231 -82.6683 North 421 484 36,900 -60 Descending Jacksonville Center
05:02PM 30.6461 -82.6197 19° North 421 484 36,900  Level Jacksonville Center
05:03PM 30.7608 -82.5661 22° Northeast 428 493 36,900  Level Jacksonville Center
05:04PM 30.8611 -82.5150 24° Northeast 434 499 37,000  Climbing Jacksonville Center
05:05PM 30.9756 -82.4589 23° Northeast 434 499 37,000 -60 Level Jacksonville Center
05:06PM 31.0903 -82.4050 22° Northeast 434 499 36,900 -60 Descending Jacksonville Center
05:07PM 31.2028 -82.3508 22° Northeast 434 499 36,900  Level Jacksonville Center
05:08PM 31.3175 -82.2967 22° Northeast 434 499 36,900  Level Jacksonville Center
05:09PM 31.4300 -82.2400 23° Northeast 434 499 37,000  Climbing Jacksonville Center
05:10PM 31.5403 -82.1856 23° Northeast 434 499 37,000  Level Jacksonville Center
05:11PM 31.6631 -82.1236 23° Northeast 429 494 37,000  Level Jacksonville Center
05:12PM 31.7589 -82.0739 24° Northeast 430 495 37,000  Level Jacksonville Center
05:13PM 31.8858 -82.0117 23° Northeast 435 501 37,000  Level Jacksonville Center
05:14PM 31.9961 -81.9569 23° Northeast 435 501 37,000  Level Jacksonville Center
05:15PM 32.0981 -81.9092 22° Northeast 435 501 37,000  Level Jacksonville Center
05:16PM 32.2228 -81.8514 21° North 435 501 37,100  Climbing Jacksonville Center
05:17PM 32.3267 -81.8033 21° North 435 501 37,000 -60 Descending Jacksonville Center
05:18PM 32.4494 -81.7453 22° Northeast 435 501 37,000  Level Jacksonville Center
05:19PM 32.5617 -81.6922 22° Northeast 439 505 37,000  Level Jacksonville Center
05:20PM 32.6636 -81.6439 22° Northeast 434 499 37,000  Level Jacksonville Center
05:21PM 32.7778 -81.5881 22° Northeast 434 499 37,000  Level Jacksonville Center
05:22PM 32.8900 -81.5319 23° Northeast 434 499 37,000  Level Jacksonville Center
05:23PM 33.0042 -81.4758 22° Northeast 434 499 37,000  Level Jacksonville Center
05:24PM 33.1161 -81.4219 22° Northeast 434 499 37,000 -60 Level Jacksonville Center
05:25PM 33.2386 -81.3628 22° Northeast 434 499 36,900 -60 Descending Jacksonville Center
05:26PM 33.3381 -81.3114 23° Northeast 428 493 36,900  Level Jacksonville Center
05:27PM 33.4481 -81.2594 22° Northeast 428 493 36,900  Level Jacksonville Center
05:28PM 33.5581 -81.2053 22° Northeast 428 493 36,900  Level Jacksonville Center
05:29PM 33.6658 -81.1533 22° Northeast 423 487 36,900  Level Jacksonville Center
05:30PM 33.7858 -81.0883 24° Northeast 423 487 37,000  Climbing Jacksonville Center
05:31PM 33.8789 -81.0264 29° Northeast 423 487 37,000  Level Jacksonville Center
05:32PM 33.9733 -80.9292 40° Northeast 429 494 37,000  Level Jacksonville Center
05:33PM 34.0658 -80.8294 42° Northeast 435 501 37,000 -60 Level Jacksonville Center
05:34PM 34.1581 -80.7319 41° Northeast 440 506 36,900  Descending Jacksonville Center
05:35PM 34.2481 -80.6292 43° Northeast 440 506 37,000  Climbing Jacksonville Center
05:36PM 34.3461 -80.5211 42° Northeast 434 499 37,000  Level Jacksonville Center
05:37PM 34.4361 -80.4203 43° Northeast 434 499 37,000 -60 Level Jacksonville Center
05:38PM 34.5239 -80.3247 42° Northeast 434 499 36,900 -60 Descending Jacksonville Center
05:39PM 34.6114 -80.2236 44° Northeast 434 499 36,900  Level Jacksonville Center
05:40PM 34.7144 -80.1069 43° Northeast 426 490 37,000  Climbing Washington Center
05:41PM 34.7889 -80.0200 44° Northeast 420 483 37,000  Level Washington Center
05:42PM 34.8800 -79.9214 42° Northeast 420 483 37,000  Level Washington Center
05:43PM 34.9669 -79.8247 42° Northeast 420 483 37,000  Level Washington Center
05:44PM 35.0558 -79.7278 42° Northeast 420 483 37,000  Level Washington Center
05:45PM 35.1428 -79.6306 42° Northeast 420 483 37,000  Level Washington Center
05:46PM 35.2372 -79.5514 34° Northeast 415 478 37,000  Level Washington Center
05:47PM 35.3419 -79.4700 32° Northeast 410 472 37,000  Level Washington Center
05:48PM 35.4444 -79.4011 29° Northeast 405 466 37,000  Level Washington Center
05:49PM 35.5342 -79.3364 30° Northeast 410 472 37,000  Level Washington Center
05:50PM 35.6389 -79.2569 32° Northeast 410 472 37,000  Level Washington Center
05:51PM 35.7369 -79.1872 30° Northeast 410 472 37,000  Level Washington Center
05:52PM 35.8372 -79.1125 31° Northeast 410 472 37,000  Level Washington Center
05:53PM 35.9331 -79.0422 31° Northeast 410 472 37,000  Level Washington Center
05:54PM 36.0311 -78.9694 31° Northeast 410 472 37,000  Level Washington Center
05:55PM 36.1292 -78.8967 31° Northeast 410 472 37,000  Level Washington Center
05:56PM 36.2272 -78.8233 31° Northeast 410 472 37,000  Level Washington Center
05:57PM 36.3253 -78.7500 31° Northeast 405 466 37,000  Level Washington Center
05:58PM 36.4250 -78.6792 30° Northeast 410 472 37,000  Level Washington Center
05:59PM 36.5208 -78.6031 33° Northeast 410 472 37,000  Level Washington Center
06:00PM 36.6208 -78.5292 31° Northeast 410 472 37,000  Level Washington Center
06:01PM 36.7058 -78.4597 33° Northeast 404 465 37,000  Level Washington Center
06:02PM 36.8036 -78.3856 31° Northeast 404 465 37,000  Level Washington Center
06:03PM 36.8992 -78.3111 32° Northeast 404 465 37,000  Level Washington Center
06:04PM 37.0011 -78.2342 31° Northeast 410 472 37,000  Level Washington Center
06:05PM 37.0986 -78.1594 31° Northeast 417 480 37,000  Level Washington Center
06:06PM 37.1964 -78.0844 31° Northeast 411 473 37,000  Level Washington Center
06:07PM 37.2958 -78.0094 31° Northeast 416 479 37,000  Level Washington Center
06:08PM 37.3956 -77.9314 32° Northeast 416 479 37,000  Level Washington Center
06:09PM 37.4950 -77.8561 31° Northeast 416 479 37,000  Level Washington Center
06:10PM 37.5925 -77.7750 33° Northeast 416 479 37,000  Level Washington Center
06:11PM 37.6900 -77.6833 37° Northeast 426 490 37,000  Level Washington Center
06:12PM 37.7894 -77.5942 35° Northeast 431 496 37,000  Level Washington Center
06:13PM 37.8869 -77.5047 36° Northeast 431 496 37,000  Level Washington Center
06:14PM 37.9864 -77.4150 35° Northeast 431 496 37,000  Level Washington Center
06:15PM 38.0900 -77.3197 36° Northeast 431 496 37,000  Level Washington Center
06:16PM 38.1869 -77.2297 36° Northeast 431 496 37,000  Level Washington Center
06:17PM 38.2781 -77.1389 38° Northeast 436 502 37,000  Level Washington Center
06:18PM 38.3833 -77.0458 35° Northeast 431 496 37,000  Level Washington Center
06:19PM 38.4825 -76.9550 36° Northeast 431 496 37,000  Level Washington Center
06:20PM 38.5794 -76.8639 36° Northeast 431 496 37,000 -60 Level Washington Center
06:21PM 38.6803 -76.7697 36° Northeast 431 496 36,900  Descending Washington Center
06:22PM 38.7731 -76.6647 41° Northeast 437 503 37,000 -360 Climbing Washington Center
06:23PM 38.8700 -76.5569 41° Northeast 448 516 36,200 -1,080 Descending Washington Center
06:24PM 38.9456 -76.4697 42° Northeast 448 516 34,900 -2,400 Descending Washington Center
06:25PM 39.0592 -76.3319 43° Northeast 453 521 31,400 -2,700 Descending Washington Center
06:26PM 39.1556 -76.2233 41° Northeast 459 528 29,500 -2,040 Descending Washington Center
06:27PM 39.2497 -76.1169 41° Northeast 459 528 27,300 -1,380 Descending Washington Center
06:28PM 39.3378 -76.0156 42° Northeast 438 504 26,900 -180 Descending Washington Center
06:29PM 39.4256 -75.9114 42° Northeast 426 490 27,000 -600 Climbing Washington Center
06:30PM 39.5031 -75.8200 42° Northeast 421 484 25,700 -1,740 Descending Washington Center
06:31PM 39.5906 -75.7153 43° Northeast 421 484 23,600 -2,040 Descending Washington Center
06:32PM 39.6739 -75.6158 43° Northeast 421 484 21,700 -2,100 Descending Washington Center
06:33PM 39.7553 -75.5214 42° Northeast 409 471 19,500 -1,920 Descending Washington Center
06:34PM 39.8342 -75.4239 43° Northeast 397 457 18,000 -1,800 Descending Washington Center
06:35PM 39.9069 -75.3344 43° Northeast 375 432 15,900 -2,280 Descending Washington Center
06:36PM 39.9797 -75.2422 44° Northeast 364 419 13,500 -2,160 Descending Washington Center
06:37PM 40.0503 -75.1578 42° Northeast 352 405 11,600 -1,260 Descending Washington Center
06:39PM 40.1667 -75.0167 43° Northeast 300 345 10,100 -1,200 Descending New York TRACON
06:40PM 40.2333 -74.9333 44° Northeast 289 333 8,400 -1,080 Descending New York TRACON
06:41PM 40.2833 -74.8667 45° Northeast 279 321 8,000 -420 Descending New York TRACON
06:42PM 40.3333 -74.8000 45° Northeast 274 315 7,600 -1,020 Descending New York TRACON
06:43PM 40.3833 -74.7333 45° Northeast 266 306 6,100 -840 Descending New York TRACON
06:44PM 40.4333 -74.6667 45° Northeast 271 312 6,000 -60 Descending New York TRACON
06:45PM 40.5167 -74.6500 North 263 303 6,000  Level New York TRACON
06:46PM 40.5833 -74.6333 11° North 266 306 6,000  Level New York TRACON
06:47PM 40.6500 -74.6000 21° North 264 304 6,000  Level New York TRACON
06:48PM 40.7167 -74.5667 21° North 268 308 6,000 -480 Level New York TRACON
06:49PM 40.7833 -74.5167 30° Northeast 263 303 5,000 -480 Descending New York TRACON
06:50PM 40.8500 -74.4667 30° Northeast 267 307 5,000  Level New York TRACON
06:51PM 40.9167 -74.4167 30° Northeast 269 310 5,000  Level New York TRACON
06:52PM 40.9500 -74.3333 62° Northeast 258 297 5,000  Level New York TRACON
06:53PM 40.9833 -74.2500 62° Northeast 227 261 5,000 -540 Level New York TRACON
06:54PM 40.9667 -74.1833 108° East 229 264 4,000 -660 Descending New York TRACON
06:55PM 40.9333 -74.1000 118° Southeast 227 261 3,700 -540 Descending New York TRACON
06:56PM 40.8833 -74.0833 166° South 186 214 3,000 -720 Descending New York TRACON